sensor_id;sensor_type;location;lat;lon;timestamp;P1;durP1;ratioP1;P2;durP2;ratioP2
36817;SDS011;22761;51.542;16.450;2024-01-30T00:01:31;58.70;;;24.40;;
36817;SDS011;22761;51.542;16.450;2024-01-30T00:04:00;48.60;;;22.50;;
36817;SDS011;22761;51.542;16.450;2024-01-30T00:06:28;58.30;;;24.60;;
36817;SDS011;22761;51.542;16.450;2024-01-30T00:08:56;57.90;;;25.40;;
36817;SDS011;22761;51.542;16.450;2024-01-30T00:11:24;67.30;;;27.60;;
36817;SDS011;22761;51.542;16.450;2024-01-30T00:13:56;42.40;;;19.40;;
36817;SDS011;22761;51.542;16.450;2024-01-30T00:16:25;35.10;;;17.70;;
36817;SDS011;22761;51.542;16.450;2024-01-30T00:18:53;27.80;;;13.60;;
36817;SDS011;22761;51.542;16.450;2024-01-30T00:21:21;31.20;;;16.30;;
36817;SDS011;22761;51.542;16.450;2024-01-30T00:23:50;36.70;;;17.30;;
36817;SDS011;22761;51.542;16.450;2024-01-30T00:26:18;34.50;;;17.60;;
36817;SDS011;22761;51.542;16.450;2024-01-30T00:28:46;37.40;;;17.70;;
36817;SDS011;22761;51.542;16.450;2024-01-30T00:31:14;39.70;;;18.30;;
36817;SDS011;22761;51.542;16.450;2024-01-30T00:33:43;41.50;;;19.40;;
36817;SDS011;22761;51.542;16.450;2024-01-30T00:36:11;37.30;;;19.40;;
36817;SDS011;22761;51.542;16.450;2024-01-30T00:38:40;43.40;;;20.00;;
36817;SDS011;22761;51.542;16.450;2024-01-30T00:41:08;40.50;;;19.10;;
36817;SDS011;22761;51.542;16.450;2024-01-30T00:43:37;36.90;;;19.10;;
36817;SDS011;22761;51.542;16.450;2024-01-30T00:46:05;47.20;;;20.10;;
36817;SDS011;22761;51.542;16.450;2024-01-30T00:48:33;36.30;;;18.20;;
36817;SDS011;22761;51.542;16.450;2024-01-30T00:51:02;36.00;;;18.10;;
36817;SDS011;22761;51.542;16.450;2024-01-30T00:53:30;48.10;;;19.70;;
36817;SDS011;22761;51.542;16.450;2024-01-30T00:55:58;50.90;;;20.00;;
36817;SDS011;22761;51.542;16.450;2024-01-30T00:58:26;50.60;;;18.50;;
36817;SDS011;22761;51.542;16.450;2024-01-30T01:00:55;41.70;;;17.90;;
36817;SDS011;22761;51.542;16.450;2024-01-30T01:03:23;44.60;;;18.60;;
36817;SDS011;22761;51.542;16.450;2024-01-30T01:05:52;42.20;;;16.80;;
36817;SDS011;22761;51.542;16.450;2024-01-30T01:08:20;42.00;;;19.20;;
36817;SDS011;22761;51.542;16.450;2024-01-30T01:10:48;39.90;;;17.10;;
36817;SDS011;22761;51.542;16.450;2024-01-30T01:13:16;43.10;;;18.40;;
36817;SDS011;22761;51.542;16.450;2024-01-30T01:15:45;39.20;;;16.90;;
36817;SDS011;22761;51.542;16.450;2024-01-30T01:18:13;41.30;;;17.70;;
36817;SDS011;22761;51.542;16.450;2024-01-30T01:20:41;38.50;;;18.30;;
36817;SDS011;22761;51.542;16.450;2024-01-30T01:23:09;43.50;;;17.20;;
36817;SDS011;22761;51.542;16.450;2024-01-30T01:25:38;61.70;;;21.50;;
36817;SDS011;22761;51.542;16.450;2024-01-30T01:28:06;41.50;;;17.50;;
36817;SDS011;22761;51.542;16.450;2024-01-30T01:30:34;51.10;;;18.60;;
36817;SDS011;22761;51.542;16.450;2024-01-30T01:33:03;45.80;;;18.80;;
36817;SDS011;22761;51.542;16.450;2024-01-30T01:35:32;40.10;;;17.70;;
36817;SDS011;22761;51.542;16.450;2024-01-30T01:38:00;48.30;;;20.30;;
36817;SDS011;22761;51.542;16.450;2024-01-30T01:40:29;70.20;;;27.20;;
36817;SDS011;22761;51.542;16.450;2024-01-30T01:42:57;68.10;;;25.50;;
36817;SDS011;22761;51.542;16.450;2024-01-30T01:45:25;65.30;;;24.40;;
36817;SDS011;22761;51.542;16.450;2024-01-30T01:47:53;40.80;;;18.40;;
36817;SDS011;22761;51.542;16.450;2024-01-30T01:50:22;60.00;;;24.50;;
36817;SDS011;22761;51.542;16.450;2024-01-30T01:52:51;54.60;;;22.60;;
36817;SDS011;22761;51.542;16.450;2024-01-30T01:55:20;58.10;;;22.70;;
36817;SDS011;22761;51.542;16.450;2024-01-30T01:57:54;60.90;;;23.10;;
36817;SDS011;22761;51.542;16.450;2024-01-30T02:00:23;51.50;;;22.10;;
36817;SDS011;22761;51.542;16.450;2024-01-30T02:02:51;49.60;;;20.50;;
36817;SDS011;22761;51.542;16.450;2024-01-30T02:05:20;52.70;;;20.80;;
36817;SDS011;22761;51.542;16.450;2024-01-30T02:07:49;37.90;;;17.60;;
36817;SDS011;22761;51.542;16.450;2024-01-30T02:10:18;25.50;;;12.50;;
36817;SDS011;22761;51.542;16.450;2024-01-30T02:12:46;23.80;;;11.40;;
36817;SDS011;22761;51.542;16.450;2024-01-30T02:15:15;23.00;;;11.40;;
36817;SDS011;22761;51.542;16.450;2024-01-30T02:17:43;25.00;;;12.10;;
36817;SDS011;22761;51.542;16.450;2024-01-30T02:20:11;28.80;;;12.40;;
36817;SDS011;22761;51.542;16.450;2024-01-30T02:22:41;23.60;;;11.60;;
36817;SDS011;22761;51.542;16.450;2024-01-30T02:25:09;25.30;;;12.50;;
36817;SDS011;22761;51.542;16.450;2024-01-30T02:27:37;24.10;;;11.60;;
36817;SDS011;22761;51.542;16.450;2024-01-30T02:30:06;26.50;;;12.80;;
36817;SDS011;22761;51.542;16.450;2024-01-30T02:32:35;30.30;;;15.00;;
36817;SDS011;22761;51.542;16.450;2024-01-30T02:35:03;24.30;;;13.60;;
36817;SDS011;22761;51.542;16.450;2024-01-30T02:37:32;23.20;;;12.40;;
36817;SDS011;22761;51.542;16.450;2024-01-30T02:40:00;32.90;;;15.10;;
36817;SDS011;22761;51.542;16.450;2024-01-30T02:42:28;34.70;;;16.50;;
36817;SDS011;22761;51.542;16.450;2024-01-30T02:44:57;28.40;;;14.90;;
36817;SDS011;22761;51.542;16.450;2024-01-30T02:47:25;29.00;;;14.80;;
36817;SDS011;22761;51.542;16.450;2024-01-30T02:49:53;34.20;;;15.10;;
36817;SDS011;22761;51.542;16.450;2024-01-30T02:52:23;34.90;;;15.50;;
36817;SDS011;22761;51.542;16.450;2024-01-30T02:54:52;29.20;;;15.40;;
36817;SDS011;22761;51.542;16.450;2024-01-30T02:57:20;33.50;;;16.00;;
36817;SDS011;22761;51.542;16.450;2024-01-30T02:59:48;34.30;;;16.50;;
36817;SDS011;22761;51.542;16.450;2024-01-30T03:02:16;32.00;;;15.30;;
36817;SDS011;22761;51.542;16.450;2024-01-30T03:04:45;44.10;;;20.00;;
36817;SDS011;22761;51.542;16.450;2024-01-30T03:07:13;28.40;;;14.20;;
36817;SDS011;22761;51.542;16.450;2024-01-30T03:09:42;31.00;;;14.60;;
36817;SDS011;22761;51.542;16.450;2024-01-30T03:12:12;30.10;;;14.40;;
36817;SDS011;22761;51.542;16.450;2024-01-30T03:14:40;27.50;;;14.00;;
36817;SDS011;22761;51.542;16.450;2024-01-30T03:17:08;31.40;;;15.70;;
36817;SDS011;22761;51.542;16.450;2024-01-30T03:19:36;28.50;;;14.70;;
36817;SDS011;22761;51.542;16.450;2024-01-30T03:22:05;34.20;;;16.60;;
36817;SDS011;22761;51.542;16.450;2024-01-30T03:24:33;35.30;;;16.10;;
36817;SDS011;22761;51.542;16.450;2024-01-30T03:27:01;30.70;;;16.00;;
36817;SDS011;22761;51.542;16.450;2024-01-30T03:29:30;31.90;;;14.80;;
36817;SDS011;22761;51.542;16.450;2024-01-30T03:31:58;29.10;;;14.90;;
36817;SDS011;22761;51.542;16.450;2024-01-30T03:34:26;31.00;;;15.00;;
36817;SDS011;22761;51.542;16.450;2024-01-30T03:36:55;42.40;;;17.90;;
36817;SDS011;22761;51.542;16.450;2024-01-30T03:39:23;40.50;;;17.00;;
36817;SDS011;22761;51.542;16.450;2024-01-30T03:41:51;35.40;;;16.70;;
36817;SDS011;22761;51.542;16.450;2024-01-30T03:44:19;33.00;;;17.20;;
36817;SDS011;22761;51.542;16.450;2024-01-30T03:46:48;36.90;;;17.50;;
36817;SDS011;22761;51.542;16.450;2024-01-30T03:49:16;35.40;;;18.20;;
36817;SDS011;22761;51.542;16.450;2024-01-30T03:51:44;37.50;;;17.60;;
36817;SDS011;22761;51.542;16.450;2024-01-30T03:54:12;32.30;;;15.10;;
36817;SDS011;22761;51.542;16.450;2024-01-30T03:56:41;32.70;;;16.20;;
36817;SDS011;22761;51.542;16.450;2024-01-30T03:59:09;34.00;;;16.80;;
36817;SDS011;22761;51.542;16.450;2024-01-30T04:01:37;35.60;;;17.00;;
36817;SDS011;22761;51.542;16.450;2024-01-30T04:04:06;35.70;;;17.10;;
36817;SDS011;22761;51.542;16.450;2024-01-30T04:06:34;32.70;;;17.00;;
36817;SDS011;22761;51.542;16.450;2024-01-30T04:09:02;37.00;;;17.70;;
36817;SDS011;22761;51.542;16.450;2024-01-30T04:11:31;30.80;;;16.60;;
36817;SDS011;22761;51.542;16.450;2024-01-30T04:13:59;31.90;;;16.10;;
36817;SDS011;22761;51.542;16.450;2024-01-30T04:16:27;37.90;;;18.40;;
36817;SDS011;22761;51.542;16.450;2024-01-30T04:18:56;31.70;;;16.30;;
36817;SDS011;22761;51.542;16.450;2024-01-30T04:21:24;37.50;;;18.40;;
36817;SDS011;22761;51.542;16.450;2024-01-30T04:23:53;31.40;;;16.50;;
36817;SDS011;22761;51.542;16.450;2024-01-30T04:26:21;33.40;;;18.40;;
36817;SDS011;22761;51.542;16.450;2024-01-30T04:28:49;36.20;;;18.10;;
36817;SDS011;22761;51.542;16.450;2024-01-30T04:31:18;32.40;;;16.80;;
36817;SDS011;22761;51.542;16.450;2024-01-30T04:33:46;38.40;;;18.60;;
36817;SDS011;22761;51.542;16.450;2024-01-30T04:36:14;33.20;;;16.30;;
36817;SDS011;22761;51.542;16.450;2024-01-30T04:38:43;34.50;;;17.30;;
36817;SDS011;22761;51.542;16.450;2024-01-30T04:41:11;39.30;;;19.00;;
36817;SDS011;22761;51.542;16.450;2024-01-30T04:43:39;39.60;;;19.20;;
36817;SDS011;22761;51.542;16.450;2024-01-30T04:46:07;40.80;;;18.80;;
36817;SDS011;22761;51.542;16.450;2024-01-30T04:48:35;37.50;;;18.30;;
36817;SDS011;22761;51.542;16.450;2024-01-30T04:51:04;39.30;;;20.20;;
36817;SDS011;22761;51.542;16.450;2024-01-30T04:53:32;35.30;;;18.10;;
36817;SDS011;22761;51.542;16.450;2024-01-30T04:56:01;43.40;;;19.80;;
36817;SDS011;22761;51.542;16.450;2024-01-30T04:58:29;37.40;;;19.40;;
36817;SDS011;22761;51.542;16.450;2024-01-30T05:00:57;40.90;;;18.50;;
36817;SDS011;22761;51.542;16.450;2024-01-30T05:03:26;36.00;;;18.30;;
36817;SDS011;22761;51.542;16.450;2024-01-30T05:05:54;36.40;;;18.10;;
36817;SDS011;22761;51.542;16.450;2024-01-30T05:08:23;36.20;;;17.90;;
36817;SDS011;22761;51.542;16.450;2024-01-30T05:10:51;40.80;;;19.70;;
36817;SDS011;22761;51.542;16.450;2024-01-30T05:13:19;38.70;;;21.00;;
36817;SDS011;22761;51.542;16.450;2024-01-30T05:15:48;39.50;;;18.90;;
36817;SDS011;22761;51.542;16.450;2024-01-30T05:18:16;35.70;;;18.90;;
36817;SDS011;22761;51.542;16.450;2024-01-30T05:20:44;35.00;;;18.70;;
36817;SDS011;22761;51.542;16.450;2024-01-30T05:23:13;38.70;;;19.00;;
36817;SDS011;22761;51.542;16.450;2024-01-30T05:25:41;36.10;;;19.00;;
36817;SDS011;22761;51.542;16.450;2024-01-30T05:28:09;36.20;;;17.80;;
36817;SDS011;22761;51.542;16.450;2024-01-30T05:30:37;37.60;;;19.40;;
36817;SDS011;22761;51.542;16.450;2024-01-30T05:33:06;34.70;;;18.20;;
36817;SDS011;22761;51.542;16.450;2024-01-30T05:35:35;32.90;;;17.70;;
36817;SDS011;22761;51.542;16.450;2024-01-30T05:38:03;36.80;;;17.50;;
36817;SDS011;22761;51.542;16.450;2024-01-30T05:40:32;35.00;;;17.30;;
36817;SDS011;22761;51.542;16.450;2024-01-30T05:43:00;36.90;;;18.20;;
36817;SDS011;22761;51.542;16.450;2024-01-30T05:45:30;35.50;;;17.00;;
36817;SDS011;22761;51.542;16.450;2024-01-30T05:47:59;35.40;;;17.40;;
36817;SDS011;22761;51.542;16.450;2024-01-30T05:50:27;35.30;;;17.40;;
36817;SDS011;22761;51.542;16.450;2024-01-30T05:52:55;34.90;;;16.70;;
36817;SDS011;22761;51.542;16.450;2024-01-30T05:55:24;37.00;;;16.70;;
36817;SDS011;22761;51.542;16.450;2024-01-30T05:57:52;39.40;;;17.40;;
36817;SDS011;22761;51.542;16.450;2024-01-30T06:00:21;34.20;;;17.10;;
36817;SDS011;22761;51.542;16.450;2024-01-30T06:02:49;35.40;;;17.00;;
36817;SDS011;22761;51.542;16.450;2024-01-30T06:05:17;31.50;;;16.50;;
36817;SDS011;22761;51.542;16.450;2024-01-30T06:07:46;35.20;;;17.20;;
36817;SDS011;22761;51.542;16.450;2024-01-30T06:10:14;35.30;;;16.10;;
36817;SDS011;22761;51.542;16.450;2024-01-30T06:12:42;35.10;;;17.70;;
36817;SDS011;22761;51.542;16.450;2024-01-30T06:15:11;40.30;;;19.00;;
36817;SDS011;22761;51.542;16.450;2024-01-30T06:17:40;77.10;;;34.60;;
36817;SDS011;22761;51.542;16.450;2024-01-30T06:20:09;40.50;;;20.40;;
36817;SDS011;22761;51.542;16.450;2024-01-30T06:22:38;41.90;;;21.60;;
36817;SDS011;22761;51.542;16.450;2024-01-30T06:25:07;46.80;;;23.70;;
36817;SDS011;22761;51.542;16.450;2024-01-30T06:27:35;36.60;;;19.80;;
36817;SDS011;22761;51.542;16.450;2024-01-30T06:30:04;39.90;;;19.30;;
36817;SDS011;22761;51.542;16.450;2024-01-30T06:32:33;37.80;;;18.10;;
36817;SDS011;22761;51.542;16.450;2024-01-30T06:35:03;47.40;;;20.80;;
36817;SDS011;22761;51.542;16.450;2024-01-30T06:37:31;43.40;;;19.30;;
36817;SDS011;22761;51.542;16.450;2024-01-30T06:40:00;41.80;;;19.20;;
36817;SDS011;22761;51.542;16.450;2024-01-30T06:42:28;33.90;;;15.90;;
36817;SDS011;22761;51.542;16.450;2024-01-30T06:44:57;31.90;;;17.00;;
36817;SDS011;22761;51.542;16.450;2024-01-30T06:47:25;36.20;;;18.50;;
36817;SDS011;22761;51.542;16.450;2024-01-30T06:49:53;42.70;;;19.60;;
36817;SDS011;22761;51.542;16.450;2024-01-30T06:52:22;44.90;;;20.60;;
36817;SDS011;22761;51.542;16.450;2024-01-30T06:54:51;44.70;;;20.70;;
36817;SDS011;22761;51.542;16.450;2024-01-30T06:57:19;40.90;;;20.00;;
36817;SDS011;22761;51.542;16.450;2024-01-30T06:59:47;45.50;;;21.40;;
36817;SDS011;22761;51.542;16.450;2024-01-30T07:02:15;45.90;;;21.10;;
36817;SDS011;22761;51.542;16.450;2024-01-30T07:04:44;40.50;;;20.90;;
36817;SDS011;22761;51.542;16.450;2024-01-30T07:07:14;41.40;;;21.20;;
36817;SDS011;22761;51.542;16.450;2024-01-30T07:09:43;41.90;;;21.10;;
36817;SDS011;22761;51.542;16.450;2024-01-30T07:12:12;45.10;;;21.00;;
36817;SDS011;22761;51.542;16.450;2024-01-30T07:14:40;50.90;;;23.40;;
36817;SDS011;22761;51.542;16.450;2024-01-30T07:17:09;57.00;;;26.60;;
36817;SDS011;22761;51.542;16.450;2024-01-30T07:19:37;64.00;;;30.10;;
36817;SDS011;22761;51.542;16.450;2024-01-30T07:22:05;79.10;;;35.10;;
36817;SDS011;22761;51.542;16.450;2024-01-30T07:24:34;82.10;;;35.70;;
36817;SDS011;22761;51.542;16.450;2024-01-30T07:27:02;63.50;;;30.60;;
36817;SDS011;22761;51.542;16.450;2024-01-30T07:29:31;59.50;;;29.90;;
36817;SDS011;22761;51.542;16.450;2024-01-30T07:31:59;56.60;;;29.30;;
36817;SDS011;22761;51.542;16.450;2024-01-30T07:34:27;54.80;;;27.80;;
36817;SDS011;22761;51.542;16.450;2024-01-30T07:36:56;54.70;;;26.90;;
36817;SDS011;22761;51.542;16.450;2024-01-30T07:39:24;70.50;;;33.90;;
36817;SDS011;22761;51.542;16.450;2024-01-30T07:41:52;81.80;;;35.70;;
36817;SDS011;22761;51.542;16.450;2024-01-30T07:44:20;55.70;;;28.30;;
36817;SDS011;22761;51.542;16.450;2024-01-30T07:46:50;51.70;;;26.80;;
36817;SDS011;22761;51.542;16.450;2024-01-30T07:49:18;40.20;;;23.20;;
36817;SDS011;22761;51.542;16.450;2024-01-30T07:51:46;39.30;;;22.80;;
36817;SDS011;22761;51.542;16.450;2024-01-30T07:54:15;45.70;;;24.90;;
36817;SDS011;22761;51.542;16.450;2024-01-30T07:56:43;161.30;;;82.00;;
36817;SDS011;22761;51.542;16.450;2024-01-30T07:59:11;86.30;;;43.60;;
36817;SDS011;22761;51.542;16.450;2024-01-30T08:01:40;91.00;;;40.30;;
36817;SDS011;22761;51.542;16.450;2024-01-30T08:04:08;95.60;;;38.10;;
36817;SDS011;22761;51.542;16.450;2024-01-30T08:06:36;87.60;;;34.60;;
36817;SDS011;22761;51.542;16.450;2024-01-30T08:09:09;60.60;;;28.20;;
36817;SDS011;22761;51.542;16.450;2024-01-30T08:11:37;70.50;;;35.60;;
36817;SDS011;22761;51.542;16.450;2024-01-30T08:14:05;112.90;;;49.70;;
36817;SDS011;22761;51.542;16.450;2024-01-30T08:16:33;105.90;;;47.30;;
36817;SDS011;22761;51.542;16.450;2024-01-30T08:19:02;58.60;;;32.90;;
36817;SDS011;22761;51.542;16.450;2024-01-30T08:21:31;64.40;;;31.50;;
36817;SDS011;22761;51.542;16.450;2024-01-30T08:24:06;105.50;;;43.00;;
36817;SDS011;22761;51.542;16.450;2024-01-30T08:26:35;134.80;;;60.10;;
36817;SDS011;22761;51.542;16.450;2024-01-30T08:29:04;155.10;;;74.60;;
36817;SDS011;22761;51.542;16.450;2024-01-30T08:31:32;185.70;;;91.10;;
36817;SDS011;22761;51.542;16.450;2024-01-30T08:34:01;233.10;;;115.80;;
36817;SDS011;22761;51.542;16.450;2024-01-30T08:36:29;170.70;;;81.00;;
36817;SDS011;22761;51.542;16.450;2024-01-30T08:38:57;97.30;;;47.10;;
36817;SDS011;22761;51.542;16.450;2024-01-30T08:41:31;86.50;;;39.90;;
36817;SDS011;22761;51.542;16.450;2024-01-30T08:43:59;62.20;;;30.90;;
36817;SDS011;22761;51.542;16.450;2024-01-30T08:46:28;44.40;;;22.50;;
36817;SDS011;22761;51.542;16.450;2024-01-30T08:48:56;38.20;;;19.40;;
36817;SDS011;22761;51.542;16.450;2024-01-30T08:51:25;32.30;;;17.90;;
36817;SDS011;22761;51.542;16.450;2024-01-30T08:53:53;34.20;;;18.60;;
36817;SDS011;22761;51.542;16.450;2024-01-30T08:56:22;30.40;;;15.20;;
36817;SDS011;22761;51.542;16.450;2024-01-30T08:58:50;27.20;;;15.30;;
36817;SDS011;22761;51.542;16.450;2024-01-30T09:01:18;25.80;;;13.90;;
36817;SDS011;22761;51.542;16.450;2024-01-30T09:03:47;31.00;;;17.20;;
36817;SDS011;22761;51.542;16.450;2024-01-30T09:06:15;30.60;;;18.90;;
36817;SDS011;22761;51.542;16.450;2024-01-30T09:08:43;37.70;;;21.00;;
36817;SDS011;22761;51.542;16.450;2024-01-30T09:11:12;31.70;;;19.10;;
36817;SDS011;22761;51.542;16.450;2024-01-30T09:13:41;33.80;;;18.70;;
36817;SDS011;22761;51.542;16.450;2024-01-30T09:16:10;32.50;;;17.70;;
36817;SDS011;22761;51.542;16.450;2024-01-30T09:18:38;23.40;;;13.60;;
36817;SDS011;22761;51.542;16.450;2024-01-30T09:21:07;23.90;;;12.80;;
36817;SDS011;22761;51.542;16.450;2024-01-30T09:23:35;21.70;;;11.80;;
36817;SDS011;22761;51.542;16.450;2024-01-30T09:26:03;26.40;;;14.70;;
36817;SDS011;22761;51.542;16.450;2024-01-30T09:28:31;24.00;;;13.30;;
36817;SDS011;22761;51.542;16.450;2024-01-30T09:31:00;25.50;;;12.40;;
36817;SDS011;22761;51.542;16.450;2024-01-30T09:33:28;18.30;;;11.50;;
36817;SDS011;22761;51.542;16.450;2024-01-30T09:35:59;23.70;;;12.00;;
36817;SDS011;22761;51.542;16.450;2024-01-30T09:38:28;20.70;;;11.50;;
36817;SDS011;22761;51.542;16.450;2024-01-30T09:40:58;20.10;;;10.80;;
36817;SDS011;22761;51.542;16.450;2024-01-30T09:43:32;19.10;;;10.10;;
36817;SDS011;22761;51.542;16.450;2024-01-30T09:46:03;17.60;;;10.80;;
36817;SDS011;22761;51.542;16.450;2024-01-30T09:48:32;21.00;;;12.40;;
36817;SDS011;22761;51.542;16.450;2024-01-30T09:51:00;22.80;;;12.40;;
36817;SDS011;22761;51.542;16.450;2024-01-30T09:53:32;20.10;;;11.40;;
36817;SDS011;22761;51.542;16.450;2024-01-30T09:56:01;20.20;;;11.70;;
36817;SDS011;22761;51.542;16.450;2024-01-30T09:58:30;21.50;;;11.00;;
36817;SDS011;22761;51.542;16.450;2024-01-30T10:00:59;19.80;;;11.80;;
36817;SDS011;22761;51.542;16.450;2024-01-30T10:03:28;21.60;;;12.00;;
36817;SDS011;22761;51.542;16.450;2024-01-30T10:05:57;18.30;;;11.50;;
36817;SDS011;22761;51.542;16.450;2024-01-30T10:08:26;17.10;;;10.90;;
36817;SDS011;22761;51.542;16.450;2024-01-30T10:10:54;20.10;;;12.30;;
36817;SDS011;22761;51.542;16.450;2024-01-30T10:13:23;22.70;;;12.80;;
36817;SDS011;22761;51.542;16.450;2024-01-30T10:15:53;20.80;;;13.90;;
36817;SDS011;22761;51.542;16.450;2024-01-30T10:18:23;22.50;;;13.60;;
36817;SDS011;22761;51.542;16.450;2024-01-30T10:20:52;23.90;;;13.90;;
36817;SDS011;22761;51.542;16.450;2024-01-30T10:23:20;23.40;;;13.40;;
36817;SDS011;22761;51.542;16.450;2024-01-30T10:25:48;22.00;;;13.30;;
36817;SDS011;22761;51.542;16.450;2024-01-30T10:28:19;22.50;;;12.70;;
36817;SDS011;22761;51.542;16.450;2024-01-30T10:30:57;22.00;;;13.70;;
36817;SDS011;22761;51.542;16.450;2024-01-30T10:33:32;20.90;;;13.70;;
36817;SDS011;22761;51.542;16.450;2024-01-30T10:36:02;18.90;;;11.90;;
36817;SDS011;22761;51.542;16.450;2024-01-30T10:38:32;22.60;;;12.80;;
36817;SDS011;22761;51.542;16.450;2024-01-30T10:41:01;17.40;;;12.00;;
36817;SDS011;22761;51.542;16.450;2024-01-30T10:46:19;18.30;;;11.10;;
36817;SDS011;22761;51.542;16.450;2024-01-30T10:48:56;19.80;;;11.70;;
36817;SDS011;22761;51.542;16.450;2024-01-30T10:51:27;19.20;;;11.60;;
36817;SDS011;22761;51.542;16.450;2024-01-30T10:53:56;17.70;;;11.30;;
36817;SDS011;22761;51.542;16.450;2024-01-30T10:56:26;21.20;;;12.50;;
36817;SDS011;22761;51.542;16.450;2024-01-30T10:58:54;19.50;;;12.90;;
36817;SDS011;22761;51.542;16.450;2024-01-30T11:01:25;19.40;;;12.10;;
36817;SDS011;22761;51.542;16.450;2024-01-30T11:03:55;21.10;;;12.20;;
36817;SDS011;22761;51.542;16.450;2024-01-30T11:09:04;21.30;;;12.70;;
36817;SDS011;22761;51.542;16.450;2024-01-30T11:11:49;18.30;;;11.90;;
36817;SDS011;22761;51.542;16.450;2024-01-30T11:14:24;19.10;;;12.00;;
36817;SDS011;22761;51.542;16.450;2024-01-30T11:16:56;18.40;;;10.50;;
36817;SDS011;22761;51.542;16.450;2024-01-30T11:19:26;19.70;;;12.50;;
36817;SDS011;22761;51.542;16.450;2024-01-30T11:21:55;18.90;;;11.30;;
36817;SDS011;22761;51.542;16.450;2024-01-30T11:24:25;16.30;;;10.40;;
36817;SDS011;22761;51.542;16.450;2024-01-30T11:26:58;12.80;;;9.00;;
36817;SDS011;22761;51.542;16.450;2024-01-30T11:29:27;19.70;;;11.30;;
36817;SDS011;22761;51.542;16.450;2024-01-30T11:31:57;13.90;;;10.60;;
36817;SDS011;22761;51.542;16.450;2024-01-30T11:34:27;18.50;;;11.20;;
36817;SDS011;22761;51.542;16.450;2024-01-30T11:36:56;15.50;;;9.70;;
36817;SDS011;22761;51.542;16.450;2024-01-30T11:39:29;14.90;;;9.40;;
36817;SDS011;22761;51.542;16.450;2024-01-30T11:41:58;15.20;;;8.90;;
36817;SDS011;22761;51.542;16.450;2024-01-30T11:44:27;12.20;;;9.30;;
36817;SDS011;22761;51.542;16.450;2024-01-30T11:46:56;14.00;;;8.70;;
36817;SDS011;22761;51.542;16.450;2024-01-30T11:49:24;13.80;;;8.50;;
36817;SDS011;22761;51.542;16.450;2024-01-30T11:51:53;12.70;;;8.30;;
36817;SDS011;22761;51.542;16.450;2024-01-30T11:54:21;19.20;;;10.80;;
36817;SDS011;22761;51.542;16.450;2024-01-30T11:56:50;15.50;;;9.80;;
36817;SDS011;22761;51.542;16.450;2024-01-30T11:59:18;18.10;;;12.00;;
36817;SDS011;22761;51.542;16.450;2024-01-30T12:01:46;24.30;;;14.60;;
36817;SDS011;22761;51.542;16.450;2024-01-30T12:04:15;15.40;;;9.40;;
36817;SDS011;22761;51.542;16.450;2024-01-30T12:06:43;15.50;;;9.20;;
36817;SDS011;22761;51.542;16.450;2024-01-30T12:09:12;12.10;;;8.50;;
36817;SDS011;22761;51.542;16.450;2024-01-30T12:11:47;13.50;;;8.30;;
36817;SDS011;22761;51.542;16.450;2024-01-30T12:14:17;14.40;;;8.10;;
36817;SDS011;22761;51.542;16.450;2024-01-30T12:16:50;9.80;;;7.10;;
36817;SDS011;22761;51.542;16.450;2024-01-30T12:19:22;12.90;;;7.60;;
36817;SDS011;22761;51.542;16.450;2024-01-30T12:21:56;10.70;;;7.40;;
36817;SDS011;22761;51.542;16.450;2024-01-30T12:24:28;16.30;;;9.70;;
36817;SDS011;22761;51.542;16.450;2024-01-30T12:26:59;12.40;;;8.50;;
36817;SDS011;22761;51.542;16.450;2024-01-30T12:29:31;11.60;;;6.90;;
36817;SDS011;22761;51.542;16.450;2024-01-30T12:32:05;12.50;;;7.50;;
36817;SDS011;22761;51.542;16.450;2024-01-30T12:34:33;11.10;;;7.80;;
36817;SDS011;22761;51.542;16.450;2024-01-30T12:37:16;11.80;;;7.60;;
36817;SDS011;22761;51.542;16.450;2024-01-30T12:39:52;14.20;;;7.60;;
36817;SDS011;22761;51.542;16.450;2024-01-30T12:42:21;9.90;;;6.90;;
36817;SDS011;22761;51.542;16.450;2024-01-30T12:44:50;12.20;;;8.20;;
36817;SDS011;22761;51.542;16.450;2024-01-30T12:47:21;9.20;;;7.10;;
36817;SDS011;22761;51.542;16.450;2024-01-30T12:49:49;10.40;;;7.10;;
36817;SDS011;22761;51.542;16.450;2024-01-30T12:52:22;11.00;;;7.20;;
36817;SDS011;22761;51.542;16.450;2024-01-30T12:54:51;20.90;;;8.50;;
36817;SDS011;22761;51.542;16.450;2024-01-30T12:57:19;11.30;;;7.80;;
36817;SDS011;22761;51.542;16.450;2024-01-30T12:59:48;11.10;;;6.80;;
36817;SDS011;22761;51.542;16.450;2024-01-30T13:02:16;10.10;;;6.60;;
36817;SDS011;22761;51.542;16.450;2024-01-30T13:04:45;10.60;;;6.70;;
36817;SDS011;22761;51.542;16.450;2024-01-30T13:07:17;9.50;;;6.20;;
36817;SDS011;22761;51.542;16.450;2024-01-30T13:09:45;8.10;;;5.80;;
36817;SDS011;22761;51.542;16.450;2024-01-30T13:12:13;10.30;;;6.90;;
36817;SDS011;22761;51.542;16.450;2024-01-30T13:14:42;12.10;;;6.60;;
36817;SDS011;22761;51.542;16.450;2024-01-30T13:17:10;10.80;;;6.40;;
36817;SDS011;22761;51.542;16.450;2024-01-30T13:19:38;19.50;;;9.80;;
36817;SDS011;22761;51.542;16.450;2024-01-30T13:22:07;9.90;;;6.20;;
36817;SDS011;22761;51.542;16.450;2024-01-30T13:24:35;12.10;;;6.50;;
36817;SDS011;22761;51.542;16.450;2024-01-30T13:27:03;10.00;;;6.20;;
36817;SDS011;22761;51.542;16.450;2024-01-30T13:29:34;13.90;;;6.40;;
36817;SDS011;22761;51.542;16.450;2024-01-30T13:32:02;9.90;;;5.60;;
36817;SDS011;22761;51.542;16.450;2024-01-30T13:34:30;8.40;;;5.60;;
36817;SDS011;22761;51.542;16.450;2024-01-30T13:36:58;8.80;;;5.40;;
36817;SDS011;22761;51.542;16.450;2024-01-30T13:39:27;43.00;;;16.70;;
36817;SDS011;22761;51.542;16.450;2024-01-30T13:42:03;11.20;;;6.90;;
36817;SDS011;22761;51.542;16.450;2024-01-30T13:44:31;11.70;;;6.20;;
36817;SDS011;22761;51.542;16.450;2024-01-30T13:47:00;11.10;;;5.50;;
36817;SDS011;22761;51.542;16.450;2024-01-30T13:49:28;13.40;;;6.30;;
36817;SDS011;22761;51.542;16.450;2024-01-30T13:51:57;10.50;;;5.60;;
36817;SDS011;22761;51.542;16.450;2024-01-30T13:54:27;11.10;;;7.00;;
36817;SDS011;22761;51.542;16.450;2024-01-30T13:56:55;11.10;;;6.80;;
36817;SDS011;22761;51.542;16.450;2024-01-30T13:59:24;10.00;;;6.30;;
36817;SDS011;22761;51.542;16.450;2024-01-30T14:01:53;10.80;;;6.40;;
36817;SDS011;22761;51.542;16.450;2024-01-30T14:04:22;13.50;;;6.80;;
36817;SDS011;22761;51.542;16.450;2024-01-30T14:06:50;10.10;;;6.10;;
36817;SDS011;22761;51.542;16.450;2024-01-30T14:09:31;8.50;;;6.10;;
36817;SDS011;22761;51.542;16.450;2024-01-30T14:12:00;7.50;;;5.60;;
36817;SDS011;22761;51.542;16.450;2024-01-30T14:14:28;7.60;;;5.50;;
36817;SDS011;22761;51.542;16.450;2024-01-30T14:16:57;9.40;;;5.80;;
36817;SDS011;22761;51.542;16.450;2024-01-30T14:19:26;10.10;;;5.70;;
36817;SDS011;22761;51.542;16.450;2024-01-30T14:21:54;9.80;;;6.00;;
36817;SDS011;22761;51.542;16.450;2024-01-30T14:24:23;9.80;;;5.90;;
36817;SDS011;22761;51.542;16.450;2024-01-30T14:26:51;10.80;;;6.20;;